Time;durP1;ratioP1;P1;durP2;ratioP2;P2;SDS_P1;SDS_P2;PMS_P1;PMS_P2;Temp;Humidity;BMP_temperature;BMP_pressure;BME280_temperature;BME280_humidity;BME280_pressure;Samples;Min_cycle;Max_cycle;Signal;HPM_P1;HPM_P2
2021/03/13 00:00:44;;;;;;;1.63;1.00;;;5.20;95.70;;;;;;5051307;28;20513;-71
2021/03/13 00:03:10;;;;;;;3.53;1.57;;;5.20;95.90;;;;;;5037873;28;20216;-70
2021/03/13 00:05:41;;;;;;;1.27;0.90;;;5.20;95.90;;;;;;5014284;28;20195;-69
2021/03/13 00:08:12;;;;;;;1.97;0.90;;;5.30;95.90;;;;;;5041607;28;20540;-70
2021/03/13 00:10:39;;;;;;;1.87;1.00;;;5.30;95.90;;;;;;5036037;28;20419;-71
2021/03/13 00:13:05;;;;;;;4.23;1.20;;;5.40;95.80;;;;;;5032576;28;20903;-73
2021/03/13 00:15:31;;;;;;;4.70;1.43;;;5.40;95.80;;;;;;5025945;28;20497;-72
2021/03/13 00:17:58;;;;;;;5.80;1.50;;;5.40;96.20;;;;;;5013453;28;21224;-70
2021/03/13 00:20:25;;;;;;;4.23;1.50;;;5.40;96.40;;;;;;5034512;28;20946;-71
2021/03/13 00:22:53;;;;;;;5.17;1.40;;;5.40;96.30;;;;;;5031078;28;20534;-71
2021/03/13 00:25:20;;;;;;;2.13;1.30;;;5.40;96.30;;;;;;5025721;28;20463;-71
2021/03/13 00:27:46;;;;;;;1.97;1.13;;;5.40;96.40;;;;;;5041515;28;20490;-69
2021/03/13 00:30:20;;;;;;;3.17;1.40;;;5.40;96.70;;;;;;5038086;28;20979;-70
2021/03/13 00:32:48;;;;;;;2.70;1.40;;;5.40;97.00;;;;;;5038380;28;20607;-70
2021/03/13 00:35:15;;;;;;;3.10;1.27;;;5.40;97.10;;;;;;5029204;28;20442;-71
2021/03/13 00:37:41;;;;;;;2.17;0.97;;;5.50;97.30;;;;;;5036091;28;20560;-75
2021/03/13 00:40:13;;;;;;;2.63;1.07;;;5.50;97.40;;;;;;5043211;28;20436;-71
2021/03/13 00:42:39;;;;;;;3.10;1.17;;;5.50;97.40;;;;;;5050534;28;20520;-71
2021/03/13 00:45:07;;;;;;;4.17;2.17;;;5.50;97.20;;;;;;5030039;28;20439;-73
2021/03/13 00:47:32;;;;;;;3.23;1.40;;;5.50;97.10;;;;;;5034996;28;20463;-71
2021/03/13 00:49:58;;;;;;;2.00;1.07;;;5.60;97.00;;;;;;5048235;28;20481;-70
2021/03/13 00:52:24;;;;;;;2.00;1.00;;;5.70;96.50;;;;;;5040718;28;20694;-73
2021/03/13 00:54:50;;;;;;;1.90;1.07;;;5.70;95.70;;;;;;5050845;28;20288;-72
2021/03/13 00:57:16;;;;;;;3.27;1.07;;;5.80;95.00;;;;;;5037534;28;20193;-71
2021/03/13 00:59:41;;;;;;;2.17;0.90;;;5.90;94.30;;;;;;5041329;28;20185;-71
2021/03/13 01:02:07;;;;;;;3.40;1.00;;;5.90;94.30;;;;;;5050823;28;20804;-71
2021/03/13 01:04:33;;;;;;;2.10;1.00;;;5.80;94.60;;;;;;5051578;28;20189;-70
2021/03/13 01:06:59;;;;;;;2.03;0.90;;;5.80;95.20;;;;;;5034307;28;20668;-70
2021/03/13 01:09:25;;;;;;;2.03;1.23;;;5.80;95.30;;;;;;5032048;28;20328;-70
2021/03/13 01:11:51;;;;;;;1.83;1.00;;;5.70;95.50;;;;;;5036151;28;20184;-70
2021/03/13 01:14:17;;;;;;;2.07;0.80;;;5.60;96.00;;;;;;5041937;28;20439;-70
2021/03/13 01:16:43;;;;;;;3.30;0.87;;;5.50;96.60;;;;;;5043627;28;20429;-69
2021/03/13 01:19:09;;;;;;;1.80;0.67;;;5.50;96.80;;;;;;5024942;28;20429;-69
2021/03/13 01:21:35;;;;;;;2.00;0.80;;;5.40;97.00;;;;;;5047879;28;20511;-71
2021/03/13 01:24:01;;;;;;;2.80;0.70;;;5.30;97.40;;;;;;5043694;28;20597;-69
2021/03/13 01:26:27;;;;;;;1.63;0.60;;;5.20;97.60;;;;;;5037844;28;20253;-69
2021/03/13 01:28:52;;;;;;;2.03;0.90;;;5.20;97.60;;;;;;5042152;28;20189;-69
2021/03/13 01:31:18;;;;;;;2.90;0.70;;;5.20;97.30;;;;;;5044544;28;20611;-70
2021/03/13 01:33:44;;;;;;;2.50;0.80;;;5.20;97.20;;;;;;5042911;28;20291;-70
2021/03/13 01:36:10;;;;;;;2.43;1.00;;;5.20;97.30;;;;;;5021740;28;20185;-69
2021/03/13 01:38:36;;;;;;;2.67;1.00;;;5.20;97.30;;;;;;5043078;28;20200;-70
2021/03/13 01:41:03;;;;;;;1.93;0.60;;;5.20;97.30;;;;;;5038356;28;20449;-69
2021/03/13 01:43:29;;;;;;;2.60;0.90;;;5.20;97.30;;;;;;5039823;28;21008;-68
2021/03/13 01:45:54;;;;;;;2.33;0.70;;;5.20;97.30;;;;;;5016472;28;20435;-69
2021/03/13 01:48:26;;;;;;;3.33;1.03;;;5.20;97.40;;;;;;5031553;28;20486;-69
2021/03/13 01:50:52;;;;;;;3.30;0.90;;;5.20;97.30;;;;;;5037504;28;20192;-68
2021/03/13 01:53:17;;;;;;;4.53;1.00;;;5.30;97.40;;;;;;5051301;28;20519;-69
2021/03/13 01:55:43;;;;;;;2.13;1.07;;;5.30;97.30;;;;;;5050789;28;20196;-69
2021/03/13 01:58:10;;;;;;;2.37;1.03;;;5.30;97.30;;;;;;5051675;28;20195;-69
2021/03/13 02:00:35;;;;;;;2.50;0.90;;;5.40;97.20;;;;;;5050175;28;20195;-69
2021/03/13 02:03:01;;;;;;;6.23;1.30;;;5.40;97.10;;;;;;5051343;28;20443;-69
2021/03/13 02:05:30;;;;;;;2.20;0.97;;;5.40;97.10;;;;;;5037214;28;20181;-70
2021/03/13 02:08:02;;;;;;;4.00;1.50;;;5.50;97.10;;;;;;5051712;28;20549;-69
2021/03/13 02:10:54;;;;;;;2.80;1.20;;;5.60;96.70;;;;;;5019122;28;20424;-70
2021/03/13 02:13:31;;;;;;;3.53;1.30;;;5.70;96.10;;;;;;5006845;28;20458;-70
2021/03/13 02:16:22;;;;;;;13.83;1.60;;;5.70;95.80;;;;;;5043296;28;20423;-69
2021/03/13 02:19:15;;;;;;;2.33;1.30;;;5.70;95.70;;;;;;5019540;28;20450;-69
2021/03/13 02:21:52;;;;;;;3.30;1.37;;;5.70;95.80;;;;;;5044490;28;20510;-70
2021/03/13 02:24:27;;;;;;;1.93;1.00;;;5.80;95.70;;;;;;5041830;28;20471;-69
2021/03/13 02:27:07;;;;;;;3.37;1.30;;;5.90;95.30;;;;;;5018757;28;21020;-70
2021/03/13 02:30:13;;;;;;;3.70;1.33;;;5.90;95.10;;;;;;5044360;28;20420;-69
2021/03/13 02:33:09;;;;;;;4.33;1.30;;;5.90;95.10;;;;;;5038429;28;20462;-69
2021/03/13 02:35:40;;;;;;;4.20;1.47;;;5.90;95.20;;;;;;5030788;28;20922;-70
2021/03/13 02:38:14;;;;;;;5.20;1.50;;;5.80;95.50;;;;;;5039680;28;20428;-70
2021/03/13 02:40:43;;;;;;;3.57;1.50;;;5.80;95.70;;;;;;5044894;28;20420;-70
2021/03/13 02:43:11;;;;;;;3.20;1.40;;;5.80;95.80;;;;;;5036607;28;20455;-70
2021/03/13 02:45:41;;;;;;;4.53;1.30;;;5.80;95.80;;;;;;5018872;28;20444;-70
2021/03/13 02:48:09;;;;;;;3.57;1.60;;;5.80;95.90;;;;;;5035426;28;20467;-70
2021/03/13 02:50:37;;;;;;;6.23;1.83;;;5.80;95.70;;;;;;5050598;28;20828;-70
2021/03/13 02:53:05;;;;;;;9.70;1.43;;;5.80;95.60;;;;;;5041764;28;20561;-70
2021/03/13 02:55:31;;;;;;;4.07;1.50;;;5.80;95.50;;;;;;5045597;28;20424;-69
2021/03/13 02:57:59;;;;;;;4.47;1.53;;;5.80;95.20;;;;;;5031215;28;20506;-69
2021/03/13 03:00:31;;;;;;;3.10;1.30;;;5.90;94.80;;;;;;5030893;28;20440;-69
2021/03/13 03:02:59;;;;;;;2.90;1.20;;;5.90;94.40;;;;;;5031980;28;20448;-70
2021/03/13 03:05:27;;;;;;;3.57;1.73;;;6.00;94.10;;;;;;5036761;28;20432;-70
2021/03/13 03:07:55;;;;;;;3.40;1.40;;;6.00;93.70;;;;;;5052244;28;20544;-70
2021/03/13 03:10:24;;;;;;;3.37;1.37;;;6.10;93.40;;;;;;5040650;28;20454;-69
2021/03/13 03:12:52;;;;;;;3.23;1.60;;;6.10;93.30;;;;;;5019428;28;21125;-70
2021/03/13 03:15:27;;;;;;;3.00;1.30;;;6.10;93.20;;;;;;5028689;28;20502;-69
2021/03/13 03:17:59;;;;;;;1.90;1.07;;;6.10;93.10;;;;;;5019198;28;20447;-69
2021/03/13 03:20:26;;;;;;;4.00;1.40;;;6.10;92.80;;;;;;5043275;28;20462;-69
2021/03/13 03:22:53;;;;;;;3.47;1.43;;;6.20;92.50;;;;;;5046902;28;21033;-70
2021/03/13 03:25:19;;;;;;;4.90;1.47;;;6.20;92.30;;;;;;5042594;28;20436;-68
2021/03/13 03:27:50;;;;;;;3.97;1.60;;;6.30;92.10;;;;;;5047179;28;20841;-68
2021/03/13 03:30:31;;;;;;;4.60;1.60;;;6.30;91.80;;;;;;5043017;28;20244;-70
2021/03/13 03:32:58;;;;;;;4.60;1.53;;;6.40;91.50;;;;;;5046338;28;20931;-70
2021/03/13 03:35:25;;;;;;;5.13;1.40;;;6.50;91.30;;;;;;5024556;28;20431;-69
2021/03/13 03:37:54;;;;;;;3.57;1.17;;;6.50;91.20;;;;;;5033684;28;20541;-70
2021/03/13 03:40:21;;;;;;;3.93;1.50;;;6.50;90.60;;;;;;5037920;28;20459;-71
2021/03/13 03:43:13;;;;;;;3.67;1.20;;;6.60;90.40;;;;;;5041216;28;20485;-70
2021/03/13 03:45:46;;;;;;;1.93;1.20;;;6.70;90.20;;;;;;5015209;28;20463;-71
2021/03/13 03:48:15;;;;;;;4.50;1.33;;;6.70;90.40;;;;;;5029294;28;20964;-70
2021/03/13 03:50:43;;;;;;;5.50;1.40;;;6.80;90.20;;;;;;5032402;28;20478;-70
2021/03/13 03:53:18;;;;;;;2.97;1.37;;;6.80;90.20;;;;;;5038424;28;20451;-70
2021/03/13 03:55:47;;;;;;;3.00;1.43;;;6.70;90.20;;;;;;5041691;28;20756;-71
2021/03/13 03:58:19;;;;;;;3.70;1.30;;;6.70;90.20;;;;;;5028066;28;20435;-71
2021/03/13 04:00:46;;;;;;;3.07;1.13;;;6.70;90.20;;;;;;5029189;28;20427;-70
2021/03/13 04:03:14;;;;;;;5.03;1.50;;;6.80;89.90;;;;;;5028877;28;20459;-69
2021/03/13 04:05:42;;;;;;;3.00;1.30;;;6.80;89.90;;;;;;5023817;28;20439;-71
2021/03/13 04:08:12;;;;;;;3.63;1.57;;;6.80;90.00;;;;;;5029032;28;20471;-71
2021/03/13 04:10:43;;;;;;;2.17;1.10;;;6.80;90.20;;;;;;5049344;28;20411;-71
2021/03/13 04:13:11;;;;;;;2.53;1.00;;;6.80;90.40;;;;;;5047732;28;20439;-71
2021/03/13 04:15:37;;;;;;;2.23;1.10;;;6.90;90.50;;;;;;5028656;28;20455;-72
2021/03/13 04:18:03;;;;;;;3.27;1.57;;;6.80;90.40;;;;;;5016223;28;20428;-72
2021/03/13 04:20:29;;;;;;;2.10;1.37;;;6.80;90.80;;;;;;5038431;28;20423;-71
2021/03/13 04:22:57;;;;;;;3.73;1.20;;;6.90;90.70;;;;;;5039905;28;20363;-70
2021/03/13 04:25:22;;;;;;;3.00;1.17;;;6.90;90.50;;;;;;5043817;28;20192;-72
2021/03/13 04:27:48;;;;;;;2.57;1.23;;;7.00;90.10;;;;;;5041895;28;20500;-71
2021/03/13 04:30:17;;;;;;;2.33;1.20;;;7.00;90.10;;;;;;5030503;28;20419;-71
2021/03/13 04:32:47;;;;;;;9.50;2.03;;;7.00;90.10;;;;;;5040422;28;20219;-73
2021/03/13 04:35:14;;;;;;;3.33;1.10;;;7.10;89.90;;;;;;5020470;28;20429;-71
2021/03/13 04:37:41;;;;;;;3.33;1.07;;;7.10;89.30;;;;;;5029459;28;20429;-71
2021/03/13 04:40:08;;;;;;;2.30;0.83;;;7.10;89.70;;;;;;5042199;28;20465;-73
2021/03/13 04:42:37;;;;;;;4.20;1.10;;;7.10;89.70;;;;;;5042358;28;20501;-72
2021/03/13 04:45:03;;;;;;;2.33;1.07;;;7.10;89.90;;;;;;5017794;28;20483;-73
2021/03/13 04:47:29;;;;;;;6.57;1.33;;;7.20;89.90;;;;;;5031486;28;21140;-71
2021/03/13 04:49:55;;;;;;;3.77;1.10;;;7.10;89.60;;;;;;5050737;28;21011;-75
2021/03/13 04:52:24;;;;;;;1.77;0.90;;;7.20;89.60;;;;;;5037775;28;20534;-73
2021/03/13 04:54:49;;;;;;;3.03;1.37;;;7.20;89.90;;;;;;5037797;28;20223;-72
2021/03/13 04:57:16;;;;;;;2.90;1.00;;;7.10;89.30;;;;;;5034593;28;20430;-72
2021/03/13 04:59:41;;;;;;;2.67;1.10;;;7.20;88.70;;;;;;5038423;28;20185;-72
2021/03/13 05:02:07;;;;;;;2.70;0.83;;;7.20;88.10;;;;;;5043624;28;20427;-73
2021/03/13 05:04:33;;;;;;;1.93;1.00;;;7.20;88.10;;;;;;5040122;28;20189;-73
2021/03/13 05:06:58;;;;;;;1.67;0.83;;;7.20;88.00;;;;;;5048632;28;20417;-72
2021/03/13 05:09:24;;;;;;;2.27;0.83;;;7.20;87.70;;;;;;5039323;28;20212;-71
2021/03/13 05:11:50;;;;;;;1.80;0.80;;;7.30;87.60;;;;;;5046851;28;20556;-69
2021/03/13 05:14:16;;;;;;;1.67;0.87;;;7.30;87.40;;;;;;5036546;28;20216;-71
2021/03/13 05:16:41;;;;;;;1.93;0.93;;;7.30;87.40;;;;;;5024962;28;20182;-71
2021/03/13 05:19:07;;;;;;;2.60;1.03;;;7.30;86.60;;;;;;5019204;28;20619;-71
2021/03/13 05:21:33;;;;;;;1.97;1.00;;;7.30;86.60;;;;;;5035730;28;20215;-71
2021/03/13 05:23:59;;;;;;;2.33;1.20;;;7.40;86.20;;;;;;5041936;28;20432;-71
2021/03/13 05:26:24;;;;;;;1.97;0.90;;;7.50;86.00;;;;;;5046556;28;20197;-70
2021/03/13 05:28:50;;;;;;;2.70;1.00;;;7.50;85.70;;;;;;5043938;28;20210;-71
2021/03/13 05:31:16;;;;;;;3.40;0.90;;;7.50;85.50;;;;;;5059922;28;20192;-73
2021/03/13 05:33:42;;;;;;;7.50;2.07;;;7.50;85.00;;;;;;5039814;28;20436;-71
2021/03/13 05:36:08;;;;;;;6.00;0.70;;;7.60;84.70;;;;;;5032371;28;20706;-70
2021/03/13 05:38:34;;;;;;;2.13;0.90;;;7.70;83.30;;;;;;5056615;28;20204;-69
2021/03/13 05:40:59;;;;;;;2.63;0.80;;;7.70;83.30;;;;;;5059769;28;20423;-70
2021/03/13 05:43:26;;;;;;;2.23;0.90;;;7.70;83.30;;;;;;5062832;28;20650;-71
2021/03/13 05:45:52;;;;;;;3.90;0.90;;;7.70;83.10;;;;;;5033565;28;20189;-71
2021/03/13 05:48:21;;;;;;;2.40;1.13;;;7.80;82.50;;;;;;5055009;28;20474;-72
2021/03/13 05:50:47;;;;;;;1.20;0.80;;;7.80;82.40;;;;;;5045977;28;20424;-72
2021/03/13 05:53:14;;;;;;;2.33;0.90;;;7.90;82.50;;;;;;5043033;28;20444;-70
2021/03/13 05:55:41;;;;;;;3.70;1.10;;;7.90;82.20;;;;;;5043570;28;20428;-72
2021/03/13 05:58:08;;;;;;;2.70;1.17;;;7.90;81.90;;;;;;5044055;28;20519;-72
2021/03/13 06:00:36;;;;;;;2.90;1.00;;;7.90;81.90;;;;;;5038780;28;20426;-71
2021/03/13 06:03:02;;;;;;;1.83;1.00;;;7.90;81.80;;;;;;5051293;28;20476;-71
2021/03/13 06:05:28;;;;;;;1.10;0.83;;;8.00;81.50;;;;;;5058473;28;20427;-70
2021/03/13 06:07:55;;;;;;;5.03;1.03;;;8.00;81.40;;;;;;5044901;28;20467;-71
2021/03/13 06:10:22;;;;;;;2.50;0.80;;;8.00;80.80;;;;;;5054720;28;20188;-70
2021/03/13 06:12:48;;;;;;;3.80;1.20;;;8.00;80.20;;;;;;5041912;28;20455;-72
2021/03/13 06:15:14;;;;;;;4.67;1.10;;;8.00;80.60;;;;;;5036852;28;20416;-71
2021/03/13 06:17:59;;;;;;;2.10;0.93;;;8.00;80.60;;;;;;5024378;28;20466;-72
2021/03/13 06:20:34;;;;;;;6.93;0.83;;;8.00;80.80;;;;;;5021679;28;20435;-70
2021/03/13 06:23:19;;;;;;;2.87;1.03;;;8.00;80.30;;;;;;5036940;28;20529;-72
2021/03/13 06:25:46;;;;;;;5.00;1.93;;;8.00;80.00;;;;;;5041536;28;20864;-71
2021/03/13 06:28:18;;;;;;;6.10;1.33;;;8.10;79.60;;;;;;5046599;28;20843;-72
2021/03/13 06:30:51;;;;;;;1.73;1.00;;;8.20;79.30;;;;;;5045899;28;20462;-71
2021/03/13 06:33:30;;;;;;;3.50;1.23;;;8.20;78.70;;;;;;5028762;28;20427;-70
2021/03/13 06:36:00;;;;;;;3.87;1.13;;;8.20;78.70;;;;;;5028055;28;20535;-72
2021/03/13 06:38:27;;;;;;;2.07;1.23;;;8.20;78.10;;;;;;5044897;28;20418;-72
2021/03/13 06:40:55;;;;;;;3.70;1.20;;;8.30;77.80;;;;;;5034222;28;20511;-71
2021/03/13 06:43:27;;;;;;;4.77;1.40;;;8.30;77.40;;;;;;5031852;28;20474;-69
2021/03/13 06:46:10;;;;;;;2.33;1.00;;;8.40;77.00;;;;;;5022916;28;20427;-71
2021/03/13 06:48:37;;;;;;;6.80;3.30;;;8.50;76.80;;;;;;5050570;28;20474;-69
2021/03/13 06:51:22;;;;;;;3.97;1.20;;;8.50;76.50;;;;;;5031573;28;20424;-69
2021/03/13 06:54:10;;;;;;;4.03;1.07;;;8.50;76.20;;;;;;5043794;28;20447;-70
2021/03/13 06:56:42;;;;;;;4.33;1.27;;;8.60;75.40;;;;;;5029311;28;20430;-69
2021/03/13 06:59:19;;;;;;;2.83;1.27;;;8.70;75.10;;;;;;5031603;28;20486;-72
2021/03/13 07:01:45;;;;;;;3.10;1.40;;;8.70;74.60;;;;;;5047135;28;20414;-70
2021/03/13 07:04:12;;;;;;;2.23;1.30;;;8.70;74.30;;;;;;5049791;28;20435;-71
2021/03/13 07:06:45;;;;;;;4.30;1.30;;;8.80;73.60;;;;;;5037276;28;20188;-71
2021/03/13 07:09:11;;;;;;;3.27;1.00;;;8.80;73.30;;;;;;5050014;28;20799;-69
2021/03/13 07:11:36;;;;;;;2.17;0.90;;;8.90;72.60;;;;;;5047705;28;20419;-69
2021/03/13 07:14:02;;;;;;;3.70;1.10;;;9.00;72.40;;;;;;5032003;28;20462;-69
2021/03/13 07:16:38;;;;;;;8.67;1.33;;;9.00;72.60;;;;;;5031392;28;20250;-70
2021/03/13 07:19:12;;;;;;;3.20;1.10;;;9.00;72.00;;;;;;5031664;28;20461;-70
2021/03/13 07:21:40;;;;;;;1.10;0.70;;;9.00;71.70;;;;;;5048807;28;20446;-71
2021/03/13 07:24:10;;;;;;;3.40;0.80;;;9.00;71.80;;;;;;5038720;28;20452;-70
2021/03/13 07:26:41;;;;;;;7.90;1.00;;;9.00;71.60;;;;;;5035542;28;20922;-71
2021/03/13 07:29:08;;;;;;;2.43;1.00;;;9.00;70.70;;;;;;5049790;28;20485;-70
2021/03/13 07:31:39;;;;;;;1.67;0.90;;;9.10;70.70;;;;;;5038313;28;20430;-70
2021/03/13 07:34:08;;;;;;;5.80;0.97;;;9.10;70.70;;;;;;5051229;28;20469;-70
2021/03/13 07:36:38;;;;;;;2.90;1.20;;;9.20;70.70;;;;;;5018483;28;21000;-70
2021/03/13 07:39:15;;;;;;;3.70;0.90;;;9.20;70.50;;;;;;5029248;28;20523;-71
2021/03/13 07:41:56;;;;;;;2.33;1.10;;;9.30;70.10;;;;;;5039999;28;20505;-71
2021/03/13 07:44:21;;;;;;;4.70;1.97;;;9.40;69.70;;;;;;5028642;28;20520;-71
2021/03/13 07:46:49;;;;;;;3.97;1.00;;;9.40;69.10;;;;;;5030864;28;20460;-71
2021/03/13 07:49:15;;;;;;;6.73;1.20;;;9.50;68.80;;;;;;5043822;28;20197;-70
2021/03/13 07:51:42;;;;;;;1.17;0.83;;;9.50;68.20;;;;;;5030415;28;20463;-70
2021/03/13 07:54:09;;;;;;;6.03;2.10;;;9.50;67.30;;;;;;5036443;28;20442;-71
2021/03/13 07:56:39;;;;;;;4.03;1.20;;;9.60;67.30;;;;;;5050863;28;20510;-69
2021/03/13 07:59:09;;;;;;;3.00;0.90;;;9.70;66.70;;;;;;5025274;28;20426;-70
2021/03/13 08:01:49;;;;;;;3.07;1.00;;;9.80;66.40;;;;;;5052163;28;20490;-70
2021/03/13 08:04:42;;;;;;;1.97;0.90;;;9.80;65.80;;;;;;5043085;28;20434;-69
2021/03/13 08:07:08;;;;;;;3.00;0.90;;;9.80;66.00;;;;;;5048027;28;20462;-69
2021/03/13 08:09:44;;;;;;;0.80;0.70;;;9.80;66.10;;;;;;5036643;28;20427;-72
2021/03/13 08:12:11;;;;;;;1.13;0.80;;;9.70;65.70;;;;;;5042494;28;20944;-72
2021/03/13 08:14:37;;;;;;;1.53;0.97;;;9.70;65.70;;;;;;5030206;28;20432;-72
2021/03/13 08:17:07;;;;;;;2.70;0.80;;;9.70;65.60;;;;;;5024602;28;20425;-73
2021/03/13 08:19:34;;;;;;;3.27;0.70;;;9.70;65.10;;;;;;5028286;28;20467;-72
2021/03/13 08:22:11;;;;;;;1.97;0.90;;;9.70;65.60;;;;;;5044513;28;20426;-72
2021/03/13 08:24:47;;;;;;;2.73;0.83;;;9.70;64.70;;;;;;5043952;28;20431;-73
2021/03/13 08:27:15;;;;;;;1.00;0.60;;;9.70;64.80;;;;;;5039920;28;20478;-72
2021/03/13 08:29:52;;;;;;;4.20;0.90;;;9.70;65.00;;;;;;5045675;28;20464;-73
2021/03/13 08:32:56;;;;;;;1.63;0.73;;;9.80;64.40;;;;;;5030916;28;20491;-72
2021/03/13 08:35:43;;;;;;;3.17;0.80;;;9.80;63.50;;;;;;5030394;28;20446;-72
2021/03/13 08:38:11;;;;;;;1.17;0.83;;;9.80;63.20;;;;;;5035715;28;20839;-72
2021/03/13 08:40:49;;;;;;;1.53;0.80;;;9.80;63.10;;;;;;5048739;28;20423;-72
2021/03/13 08:43:32;;;;;;;1.70;0.73;;;9.80;62.90;;;;;;5027784;28;20523;-73
2021/03/13 08:45:58;;;;;;;3.20;1.30;;;9.90;61.70;;;;;;5021229;28;20430;-73
2021/03/13 08:48:59;;;;;;;12.33;1.17;;;10.00;61.30;;;;;;5049648;28;20472;-72
2021/03/13 08:51:25;;;;;;;1.40;0.67;;;10.10;60.00;;;;;;5048773;28;20195;-72
2021/03/13 08:53:51;;;;;;;1.20;0.80;;;10.20;59.10;;;;;;5047012;28;21247;-73
2021/03/13 08:56:36;;;;;;;1.30;0.70;;;10.30;58.80;;;;;;5032067;28;20407;-72
2021/03/13 08:59:13;;;;;;;4.40;0.90;;;10.40;58.90;;;;;;5033094;28;20419;-71
2021/03/13 09:01:40;;;;;;;2.10;0.90;;;10.40;58.40;;;;;;5032578;28;21130;-70
2021/03/13 09:04:06;;;;;;;1.23;0.77;;;10.40;57.70;;;;;;5031933;28;20868;-71
2021/03/13 09:06:32;;;;;;;4.83;1.10;;;10.50;58.20;;;;;;5033052;28;20412;-71
2021/03/13 09:09:15;;;;;;;3.63;0.97;;;10.60;57.80;;;;;;5053742;28;20430;-71
2021/03/13 09:11:42;;;;;;;2.00;1.10;;;10.60;57.40;;;;;;5052952;28;20425;-71
2021/03/13 09:14:09;;;;;;;2.73;1.03;;;10.50;57.30;;;;;;5042588;28;20530;-70
2021/03/13 09:16:39;;;;;;;1.40;0.90;;;10.60;57.40;;;;;;5035784;28;20503;-70
2021/03/13 09:19:08;;;;;;;2.63;1.00;;;10.60;56.80;;;;;;5041405;28;20414;-71
2021/03/13 09:21:40;;;;;;;1.37;0.93;;;10.60;56.90;;;;;;5044027;28;20422;-70
2021/03/13 09:24:08;;;;;;;3.17;0.80;;;10.70;56.90;;;;;;5049928;28;20444;-70
2021/03/13 09:26:33;;;;;;;2.20;0.97;;;10.70;56.20;;;;;;5044994;28;20441;-70
2021/03/13 09:28:59;;;;;;;1.63;0.70;;;10.80;56.40;;;;;;5042221;28;20432;-70
2021/03/13 09:31:25;;;;;;;1.60;1.00;;;10.80;56.10;;;;;;5047214;28;20428;-70
2021/03/13 09:33:51;;;;;;;1.77;1.20;;;10.80;56.10;;;;;;5043398;28;20486;-71
2021/03/13 09:36:17;;;;;;;3.07;1.07;;;11.00;55.80;;;;;;5021872;28;20555;-70
2021/03/13 09:38:55;;;;;;;3.37;1.30;;;11.10;55.60;;;;;;5042715;28;20655;-71
2021/03/13 09:41:21;;;;;;;2.10;0.77;;;11.10;55.40;;;;;;5046622;28;20499;-71
2021/03/13 09:43:47;;;;;;;3.00;1.10;;;11.10;55.30;;;;;;5045403;28;20942;-70
2021/03/13 09:46:17;;;;;;;3.70;0.93;;;11.00;55.30;;;;;;5020323;28;20627;-71
2021/03/13 09:48:43;;;;;;;1.10;0.77;;;11.10;55.20;;;;;;5033732;28;20220;-69
2021/03/13 09:51:09;;;;;;;2.93;1.10;;;11.20;55.00;;;;;;5034150;28;20793;-69
2021/03/13 09:53:37;;;;;;;1.17;0.80;;;11.20;55.00;;;;;;5032509;28;20447;-71
2021/03/13 09:56:03;;;;;;;0.90;0.70;;;11.20;55.20;;;;;;5029911;28;20514;-72
2021/03/13 09:58:29;;;;;;;2.30;0.87;;;11.20;55.00;;;;;;5033773;28;20415;-72
2021/03/13 10:00:55;;;;;;;1.00;0.80;;;11.20;55.30;;;;;;5052187;28;20434;-70
2021/03/13 10:03:21;;;;;;;1.20;0.80;;;11.30;55.40;;;;;;5050267;28;20235;-71
2021/03/13 10:05:57;;;;;;;2.20;1.03;;;11.40;55.40;;;;;;5030700;28;20373;-72
2021/03/13 10:08:33;;;;;;;1.73;0.90;;;11.20;55.30;;;;;;5030145;28;20498;-73
2021/03/13 10:11:02;;;;;;;7.27;0.93;;;11.20;55.80;;;;;;5033629;28;20420;-71
2021/03/13 10:13:29;;;;;;;1.77;0.90;;;11.20;56.10;;;;;;5034261;28;20525;-73
2021/03/13 10:15:56;;;;;;;1.07;0.80;;;11.20;56.10;;;;;;5034015;28;20434;-71
2021/03/13 10:18:26;;;;;;;0.90;0.73;;;11.00;56.20;;;;;;5031380;28;20566;-70
2021/03/13 10:20:57;;;;;;;2.17;0.90;;;11.00;56.40;;;;;;5045402;28;20554;-71
2021/03/13 10:23:35;;;;;;;3.70;1.13;;;11.00;56.80;;;;;;5041901;28;20542;-71
2021/03/13 10:26:11;;;;;;;3.47;1.00;;;11.10;56.80;;;;;;5057281;28;20437;-70
2021/03/13 10:28:45;;;;;;;2.50;0.90;;;11.10;56.60;;;;;;5041619;28;20524;-72
2021/03/13 10:31:19;;;;;;;1.03;0.70;;;11.10;56.90;;;;;;5044650;28;20782;-71
2021/03/13 10:33:46;;;;;;;3.93;1.00;;;11.10;56.90;;;;;;5040904;28;20446;-71
2021/03/13 10:36:13;;;;;;;3.30;1.10;;;11.10;56.80;;;;;;5020742;28;20486;-71
2021/03/13 10:38:44;;;;;;;1.90;0.80;;;11.10;56.60;;;;;;5043103;28;20580;-71
2021/03/13 10:41:15;;;;;;;2.90;0.80;;;11.10;56.80;;;;;;5038308;28;20430;-72
2021/03/13 10:43:52;;;;;;;3.30;0.90;;;11.10;56.90;;;;;;5036108;28;20546;-71
2021/03/13 10:46:20;;;;;;;2.63;0.70;;;11.10;56.90;;;;;;5021970;28;20436;-72
2021/03/13 10:48:46;;;;;;;1.10;0.70;;;11.10;56.90;;;;;;5039325;28;20479;-71
2021/03/13 10:51:42;;;;;;;4.10;0.93;;;11.10;56.60;;;;;;5031345;28;20919;-69
2021/03/13 10:54:29;;;;;;;2.40;1.20;;;11.20;56.50;;;;;;5022988;28;20212;-72
2021/03/13 10:56:55;;;;;;;1.00;0.60;;;11.20;56.60;;;;;;5025616;28;21157;-70
2021/03/13 10:59:34;;;;;;;1.73;0.70;;;11.20;56.50;;;;;;5027419;28;20518;-70
2021/03/13 11:02:00;;;;;;;4.10;0.80;;;11.30;56.00;;;;;;5040000;28;20424;-71
2021/03/13 11:04:26;;;;;;;1.63;0.70;;;11.30;55.80;;;;;;5045592;28;20442;-70
2021/03/13 11:06:53;;;;;;;3.33;0.93;;;11.30;55.70;;;;;;5040511;28;20213;-72
2021/03/13 11:09:20;;;;;;;1.67;1.03;;;11.30;56.00;;;;;;5046495;28;20211;-71
2021/03/13 11:11:46;;;;;;;1.17;0.80;;;11.40;55.20;;;;;;5025045;28;20457;-72
2021/03/13 11:14:11;;;;;;;1.37;0.87;;;11.40;54.90;;;;;;5034852;28;20470;-69
2021/03/13 11:16:37;;;;;;;1.00;0.80;;;11.40;54.90;;;;;;5037256;28;20181;-71
2021/03/13 11:19:04;;;;;;;3.90;1.03;;;11.40;54.90;;;;;;5040020;28;20185;-71
2021/03/13 11:21:30;;;;;;;2.23;0.80;;;11.50;54.40;;;;;;5045904;28;20234;-71
2021/03/13 11:23:56;;;;;;;2.40;0.70;;;11.40;54.20;;;;;;5049036;28;20447;-71
2021/03/13 11:26:23;;;;;;;0.80;0.70;;;11.40;54.20;;;;;;5046872;28;20427;-71
2021/03/13 11:28:49;;;;;;;3.37;1.13;;;11.50;54.40;;;;;;5028242;28;20849;-70
2021/03/13 11:31:16;;;;;;;0.93;0.60;;;11.50;54.20;;;;;;5047528;28;20431;-72
2021/03/13 11:33:42;;;;;;;1.70;0.70;;;11.60;54.00;;;;;;5029770;28;20439;-70
2021/03/13 11:36:09;;;;;;;2.67;0.97;;;11.60;54.20;;;;;;5033333;28;20442;-70
2021/03/13 11:38:35;;;;;;;1.13;0.70;;;11.70;54.20;;;;;;5044291;28;20452;-71
2021/03/13 11:41:02;;;;;;;1.47;0.70;;;11.70;54.20;;;;;;5048269;28;20454;-71
2021/03/13 11:43:29;;;;;;;4.03;0.90;;;11.70;54.20;;;;;;5031467;28;20452;-72
2021/03/13 11:45:54;;;;;;;1.50;0.80;;;11.70;54.00;;;;;;5035717;28;20794;-71
2021/03/13 11:48:21;;;;;;;1.37;0.70;;;11.70;54.20;;;;;;5041246;28;20464;-72
2021/03/13 11:50:47;;;;;;;2.87;0.90;;;11.70;54.00;;;;;;5021542;28;20223;-72
2021/03/13 11:53:13;;;;;;;2.80;0.83;;;11.70;54.00;;;;;;5026650;28;20788;-71
2021/03/13 11:55:39;;;;;;;1.47;0.90;;;11.70;53.80;;;;;;5044535;28;20422;-72
2021/03/13 11:58:05;;;;;;;2.83;1.00;;;11.80;53.80;;;;;;5047363;28;20196;-73
2021/03/13 12:00:30;;;;;;;1.63;0.80;;;11.80;53.80;;;;;;5024025;28;20437;-73
2021/03/13 12:02:56;;;;;;;1.40;0.80;;;11.80;53.80;;;;;;5018825;28;20224;-73
2021/03/13 12:05:22;;;;;;;2.13;0.80;;;11.80;53.70;;;;;;5026892;28;20266;-73
2021/03/13 12:07:48;;;;;;;2.20;0.67;;;11.80;53.80;;;;;;5026187;28;20731;-73
2021/03/13 12:10:14;;;;;;;4.33;1.13;;;11.70;54.10;;;;;;5027401;28;20200;-71
2021/03/13 12:12:39;;;;;;;1.27;0.70;;;11.70;54.60;;;;;;5025780;28;20224;-72
2021/03/13 12:15:07;;;;;;;3.30;0.80;;;11.70;54.60;;;;;;5043025;28;20430;-71
2021/03/13 12:17:34;;;;;;;6.20;1.00;;;11.70;55.70;;;;;;5039589;28;20196;-72
2021/03/13 12:20:00;;;;;;;1.97;0.80;;;11.50;57.70;;;;;;5027166;28;20428;-72
2021/03/13 12:22:26;;;;;;;2.87;0.93;;;11.30;58.80;;;;;;5026949;28;20448;-73
2021/03/13 12:24:53;;;;;;;2.07;0.70;;;11.20;60.00;;;;;;5026184;28;20431;-72
2021/03/13 12:27:19;;;;;;;0.70;0.60;;;11.20;60.10;;;;;;5028943;28;20455;-72
2021/03/13 12:29:45;;;;;;;1.30;0.70;;;11.20;60.60;;;;;;5031316;28;20433;-72
2021/03/13 12:32:11;;;;;;;1.00;0.90;;;11.10;62.00;;;;;;5040126;28;20424;-71
2021/03/13 12:34:36;;;;;;;1.10;0.80;;;11.10;62.50;;;;;;5040516;28;20192;-72
2021/03/13 12:37:02;;;;;;;1.50;0.73;;;11.10;62.30;;;;;;5036531;28;20193;-72
2021/03/13 12:39:28;;;;;;;2.37;1.00;;;11.00;63.40;;;;;;5039885;28;20196;-72
2021/03/13 12:41:53;;;;;;;1.57;0.90;;;11.10;63.50;;;;;;5054286;28;20709;-72
2021/03/13 12:44:19;;;;;;;1.80;0.97;;;11.00;64.10;;;;;;5027076;28;20243;-73
2021/03/13 12:46:45;;;;;;;2.70;0.80;;;11.00;64.50;;;;;;5023354;28;20189;-72
2021/03/13 12:49:11;;;;;;;2.53;0.80;;;11.20;64.10;;;;;;5029378;28;20209;-73
2021/03/13 12:51:37;;;;;;;1.73;0.70;;;11.20;64.10;;;;;;5030182;28;20284;-72
2021/03/13 12:54:04;;;;;;;1.30;0.70;;;11.10;64.50;;;;;;5048713;28;21026;-72
2021/03/13 12:56:29;;;;;;;1.87;0.87;;;10.90;66.00;;;;;;5037701;28;20475;-70
2021/03/13 12:58:55;;;;;;;0.83;0.60;;;10.80;66.90;;;;;;5035717;28;20885;-73
2021/03/13 13:01:21;;;;;;;1.70;0.70;;;10.70;67.70;;;;;;5036104;28;20280;-71
2021/03/13 13:03:57;;;;;;;2.10;1.17;;;10.50;69.20;;;;;;5028374;28;20259;-73